sim
Sign-in with your pilot id or email,
or register
Callsign
Passwort

Schedule Details

Flight Number: RYR5476 (2)
Departure: Madrid Barajas Airport (LEMD) at 09:05
Arrival: Fuerteventura Airport (GCFV) at 11:50
Route: Ryanair Passenger Schedule. Enter filed route here before submitting Pirep.

Weather Information
Getting current METAR information for LEMD 231100Z 13003KT 9999 FEW075TCU 34/06 Q1019 NOSIG
Getting current METAR information for GCFV 231100Z 06015KT 9999 FEW020 24/19 Q1017

Schedule Frequency

Route Map